sensor_id;sensor_type;location;lat;lon;timestamp;temperature;humidity
18611;DHT22;9435;52.122;5.502;2023-04-10T00:00:01;9.10;99.90
18611;DHT22;9435;52.122;5.502;2023-04-10T00:02:28;9.10;99.90
18611;DHT22;9435;52.122;5.502;2023-04-10T00:04:55;9.10;99.90
18611;DHT22;9435;52.122;5.502;2023-04-10T00:07:22;9.00;99.90
18611;DHT22;9435;52.122;5.502;2023-04-10T00:09:50;9.00;99.90
18611;DHT22;9435;52.122;5.502;2023-04-10T00:12:18;9.10;99.90
18611;DHT22;9435;52.122;5.502;2023-04-10T00:14:45;9.10;99.90
18611;DHT22;9435;52.122;5.502;2023-04-10T00:17:12;9.00;99.90
18611;DHT22;9435;52.122;5.502;2023-04-10T00:19:40;9.10;99.90
18611;DHT22;9435;52.122;5.502;2023-04-10T00:22:07;9.10;99.90
18611;DHT22;9435;52.122;5.502;2023-04-10T00:24:34;9.00;99.90
18611;DHT22;9435;52.122;5.502;2023-04-10T00:27:01;9.00;99.90
18611;DHT22;9435;52.122;5.502;2023-04-10T00:29:29;9.00;99.90
18611;DHT22;9435;52.122;5.502;2023-04-10T00:31:56;9.00;99.90
18611;DHT22;9435;52.122;5.502;2023-04-10T00:34:23;9.00;99.90
18611;DHT22;9435;52.122;5.502;2023-04-10T00:36:51;8.90;99.90
18611;DHT22;9435;52.122;5.502;2023-04-10T00:39:18;8.90;99.90
18611;DHT22;9435;52.122;5.502;2023-04-10T00:41:45;8.90;99.90
18611;DHT22;9435;52.122;5.502;2023-04-10T00:44:12;8.90;99.90
18611;DHT22;9435;52.122;5.502;2023-04-10T00:46:40;8.90;99.90
18611;DHT22;9435;52.122;5.502;2023-04-10T00:49:08;8.90;99.90
18611;DHT22;9435;52.122;5.502;2023-04-10T00:51:36;8.90;99.90
18611;DHT22;9435;52.122;5.502;2023-04-10T00:54:03;8.80;99.90
18611;DHT22;9435;52.122;5.502;2023-04-10T00:56:31;8.80;99.90
18611;DHT22;9435;52.122;5.502;2023-04-10T00:58:59;8.80;99.90
18611;DHT22;9435;52.122;5.502;2023-04-10T01:01:27;8.80;99.90
18611;DHT22;9435;52.122;5.502;2023-04-10T01:03:56;8.70;99.90
18611;DHT22;9435;52.122;5.502;2023-04-10T01:06:34;8.70;99.90
18611;DHT22;9435;52.122;5.502;2023-04-10T01:09:11;8.70;99.90
18611;DHT22;9435;52.122;5.502;2023-04-10T01:11:47;8.60;99.90
18611;DHT22;9435;52.122;5.502;2023-04-10T01:14:22;8.60;99.90
18611;DHT22;9435;52.122;5.502;2023-04-10T01:16:56;8.50;99.90
18611;DHT22;9435;52.122;5.502;2023-04-10T01:19:36;8.50;99.90
18611;DHT22;9435;52.122;5.502;2023-04-10T01:22:07;8.50;99.90
18611;DHT22;9435;52.122;5.502;2023-04-10T01:24:49;8.40;99.90
18611;DHT22;9435;52.122;5.502;2023-04-10T01:27:43;8.40;99.90
18611;DHT22;9435;52.122;5.502;2023-04-10T01:30:17;8.40;99.90
18611;DHT22;9435;52.122;5.502;2023-04-10T01:32:45;8.40;99.90
18611;DHT22;9435;52.122;5.502;2023-04-10T01:35:14;8.40;99.90
18611;DHT22;9435;52.122;5.502;2023-04-10T01:37:44;8.40;99.90
18611;DHT22;9435;52.122;5.502;2023-04-10T01:40:16;8.30;99.90
18611;DHT22;9435;52.122;5.502;2023-04-10T01:42:49;8.40;99.90
18611;DHT22;9435;52.122;5.502;2023-04-10T01:45:21;8.40;99.90
18611;DHT22;9435;52.122;5.502;2023-04-10T01:47:49;8.40;99.90
18611;DHT22;9435;52.122;5.502;2023-04-10T01:50:17;8.50;99.90
18611;DHT22;9435;52.122;5.502;2023-04-10T01:52:46;8.50;99.90
18611;DHT22;9435;52.122;5.502;2023-04-10T01:55:14;8.50;99.90
18611;DHT22;9435;52.122;5.502;2023-04-10T01:57:41;8.50;99.90
18611;DHT22;9435;52.122;5.502;2023-04-10T02:00:09;8.50;99.90
18611;DHT22;9435;52.122;5.502;2023-04-10T02:02:38;8.50;99.90
18611;DHT22;9435;52.122;5.502;2023-04-10T02:05:05;8.50;99.90
18611;DHT22;9435;52.122;5.502;2023-04-10T02:07:38;8.60;99.90
18611;DHT22;9435;52.122;5.502;2023-04-10T02:10:11;8.60;99.90
18611;DHT22;9435;52.122;5.502;2023-04-10T02:12:45;8.50;99.90
18611;DHT22;9435;52.122;5.502;2023-04-10T02:15:17;8.50;99.90
18611;DHT22;9435;52.122;5.502;2023-04-10T02:17:48;8.50;99.90
18611;DHT22;9435;52.122;5.502;2023-04-10T02:20:15;8.40;99.90
18611;DHT22;9435;52.122;5.502;2023-04-10T02:22:43;8.40;99.90
18611;DHT22;9435;52.122;5.502;2023-04-10T02:25:11;8.40;99.90
18611;DHT22;9435;52.122;5.502;2023-04-10T02:27:38;8.40;99.90
18611;DHT22;9435;52.122;5.502;2023-04-10T02:30:07;8.40;99.90
18611;DHT22;9435;52.122;5.502;2023-04-10T02:32:34;8.30;99.90
18611;DHT22;9435;52.122;5.502;2023-04-10T02:35:03;8.30;99.90
18611;DHT22;9435;52.122;5.502;2023-04-10T02:37:30;8.30;99.90
18611;DHT22;9435;52.122;5.502;2023-04-10T02:39:57;8.40;99.90
18611;DHT22;9435;52.122;5.502;2023-04-10T02:42:24;8.30;99.90
18611;DHT22;9435;52.122;5.502;2023-04-10T02:44:51;8.30;99.90
18611;DHT22;9435;52.122;5.502;2023-04-10T02:47:18;8.30;99.90
18611;DHT22;9435;52.122;5.502;2023-04-10T02:49:45;8.30;99.90
18611;DHT22;9435;52.122;5.502;2023-04-10T02:52:14;8.20;99.90
18611;DHT22;9435;52.122;5.502;2023-04-10T02:54:42;8.20;99.90
18611;DHT22;9435;52.122;5.502;2023-04-10T02:57:09;8.20;99.90
18611;DHT22;9435;52.122;5.502;2023-04-10T02:59:36;8.20;99.90
18611;DHT22;9435;52.122;5.502;2023-04-10T03:02:03;8.10;99.90
18611;DHT22;9435;52.122;5.502;2023-04-10T03:04:31;8.10;99.90
18611;DHT22;9435;52.122;5.502;2023-04-10T03:06:58;8.00;99.90
18611;DHT22;9435;52.122;5.502;2023-04-10T03:09:26;8.10;99.90
18611;DHT22;9435;52.122;5.502;2023-04-10T03:11:53;8.10;99.90
18611;DHT22;9435;52.122;5.502;2023-04-10T03:14:20;8.10;99.90
18611;DHT22;9435;52.122;5.502;2023-04-10T03:16:47;8.10;99.90
18611;DHT22;9435;52.122;5.502;2023-04-10T03:19:15;8.10;99.90
18611;DHT22;9435;52.122;5.502;2023-04-10T03:21:42;8.10;99.90
18611;DHT22;9435;52.122;5.502;2023-04-10T03:24:09;8.20;99.90
18611;DHT22;9435;52.122;5.502;2023-04-10T03:26:37;8.30;99.90
18611;DHT22;9435;52.122;5.502;2023-04-10T03:29:04;8.20;99.90
18611;DHT22;9435;52.122;5.502;2023-04-10T03:31:31;8.20;99.90
18611;DHT22;9435;52.122;5.502;2023-04-10T03:33:58;8.10;99.90
18611;DHT22;9435;52.122;5.502;2023-04-10T03:36:25;8.10;99.90
18611;DHT22;9435;52.122;5.502;2023-04-10T03:38:53;8.10;99.90
18611;DHT22;9435;52.122;5.502;2023-04-10T03:41:20;8.10;99.90
18611;DHT22;9435;52.122;5.502;2023-04-10T03:43:50;8.10;99.90
18611;DHT22;9435;52.122;5.502;2023-04-10T03:46:17;8.00;99.90
18611;DHT22;9435;52.122;5.502;2023-04-10T03:48:44;8.00;99.90
18611;DHT22;9435;52.122;5.502;2023-04-10T03:51:12;8.00;99.90
18611;DHT22;9435;52.122;5.502;2023-04-10T03:53:39;8.00;99.90
18611;DHT22;9435;52.122;5.502;2023-04-10T03:56:07;7.90;99.90
18611;DHT22;9435;52.122;5.502;2023-04-10T03:58:34;7.90;99.90
18611;DHT22;9435;52.122;5.502;2023-04-10T04:01:03;7.90;99.90
18611;DHT22;9435;52.122;5.502;2023-04-10T04:03:31;7.80;99.90
18611;DHT22;9435;52.122;5.502;2023-04-10T04:05:58;7.80;99.90
18611;DHT22;9435;52.122;5.502;2023-04-10T04:08:25;7.70;99.90
18611;DHT22;9435;52.122;5.502;2023-04-10T04:10:52;7.80;99.90
18611;DHT22;9435;52.122;5.502;2023-04-10T04:13:19;7.80;99.90
18611;DHT22;9435;52.122;5.502;2023-04-10T04:15:46;7.70;99.90
18611;DHT22;9435;52.122;5.502;2023-04-10T04:18:15;7.70;99.90
18611;DHT22;9435;52.122;5.502;2023-04-10T04:20:42;7.70;99.90
18611;DHT22;9435;52.122;5.502;2023-04-10T04:23:09;7.70;99.90
18611;DHT22;9435;52.122;5.502;2023-04-10T04:25:36;7.70;99.90
18611;DHT22;9435;52.122;5.502;2023-04-10T04:28:03;7.70;99.90
18611;DHT22;9435;52.122;5.502;2023-04-10T04:30:30;7.70;99.90
18611;DHT22;9435;52.122;5.502;2023-04-10T04:32:57;7.70;99.90
18611;DHT22;9435;52.122;5.502;2023-04-10T04:35:26;7.70;99.90
18611;DHT22;9435;52.122;5.502;2023-04-10T04:37:53;7.80;99.90
18611;DHT22;9435;52.122;5.502;2023-04-10T04:40:20;7.80;99.90
18611;DHT22;9435;52.122;5.502;2023-04-10T04:42:47;7.80;99.90
18611;DHT22;9435;52.122;5.502;2023-04-10T04:45:14;7.80;99.90
18611;DHT22;9435;52.122;5.502;2023-04-10T04:47:41;7.70;99.90
18611;DHT22;9435;52.122;5.502;2023-04-10T04:50:08;7.70;99.90
18611;DHT22;9435;52.122;5.502;2023-04-10T04:52:37;7.70;99.90
18611;DHT22;9435;52.122;5.502;2023-04-10T04:55:05;7.80;99.90
18611;DHT22;9435;52.122;5.502;2023-04-10T04:57:33;7.70;99.90
18611;DHT22;9435;52.122;5.502;2023-04-10T05:00:00;7.70;99.90
18611;DHT22;9435;52.122;5.502;2023-04-10T05:02:27;7.70;99.90
18611;DHT22;9435;52.122;5.502;2023-04-10T05:04:54;7.70;99.90
18611;DHT22;9435;52.122;5.502;2023-04-10T05:07:21;7.70;99.90
18611;DHT22;9435;52.122;5.502;2023-04-10T05:09:49;7.70;99.90
18611;DHT22;9435;52.122;5.502;2023-04-10T05:12:16;7.60;99.90
18611;DHT22;9435;52.122;5.502;2023-04-10T05:14:44;7.70;99.90
18611;DHT22;9435;52.122;5.502;2023-04-10T05:17:11;7.70;99.90
18611;DHT22;9435;52.122;5.502;2023-04-10T05:19:39;7.70;99.90
18611;DHT22;9435;52.122;5.502;2023-04-10T05:22:06;7.80;99.90
18611;DHT22;9435;52.122;5.502;2023-04-10T05:24:33;7.80;99.90
18611;DHT22;9435;52.122;5.502;2023-04-10T05:27:02;7.80;99.90
18611;DHT22;9435;52.122;5.502;2023-04-10T05:29:29;7.90;99.90
18611;DHT22;9435;52.122;5.502;2023-04-10T05:31:56;7.90;99.90
18611;DHT22;9435;52.122;5.502;2023-04-10T05:34:23;8.00;99.90
18611;DHT22;9435;52.122;5.502;2023-04-10T05:36:50;8.10;99.90
18611;DHT22;9435;52.122;5.502;2023-04-10T05:39:17;8.10;99.90
18611;DHT22;9435;52.122;5.502;2023-04-10T05:41:46;8.10;99.90
18611;DHT22;9435;52.122;5.502;2023-04-10T05:44:15;8.10;99.90
18611;DHT22;9435;52.122;5.502;2023-04-10T05:46:46;8.20;99.90
18611;DHT22;9435;52.122;5.502;2023-04-10T05:49:40;8.20;99.90
18611;DHT22;9435;52.122;5.502;2023-04-10T05:52:09;8.30;99.90
18611;DHT22;9435;52.122;5.502;2023-04-10T05:54:36;8.30;99.90
18611;DHT22;9435;52.122;5.502;2023-04-10T05:57:03;8.30;99.90
18611;DHT22;9435;52.122;5.502;2023-04-10T05:59:32;8.40;99.90
18611;DHT22;9435;52.122;5.502;2023-04-10T06:01:59;8.40;99.90
18611;DHT22;9435;52.122;5.502;2023-04-10T06:04:26;8.50;99.90
18611;DHT22;9435;52.122;5.502;2023-04-10T06:06:53;8.50;99.90
18611;DHT22;9435;52.122;5.502;2023-04-10T06:09:20;8.60;99.90
18611;DHT22;9435;52.122;5.502;2023-04-10T06:11:47;8.60;99.90
18611;DHT22;9435;52.122;5.502;2023-04-10T06:14:16;8.70;99.90
18611;DHT22;9435;52.122;5.502;2023-04-10T06:16:44;8.70;99.90
18611;DHT22;9435;52.122;5.502;2023-04-10T06:19:12;8.80;99.90
18611;DHT22;9435;52.122;5.502;2023-04-10T06:21:39;8.90;99.90
18611;DHT22;9435;52.122;5.502;2023-04-10T06:24:06;8.90;99.90
18611;DHT22;9435;52.122;5.502;2023-04-10T06:26:33;8.90;99.90
18611;DHT22;9435;52.122;5.502;2023-04-10T06:29:00;9.00;99.90
18611;DHT22;9435;52.122;5.502;2023-04-10T06:31:27;9.00;99.90
18611;DHT22;9435;52.122;5.502;2023-04-10T06:33:55;9.10;99.90
18611;DHT22;9435;52.122;5.502;2023-04-10T06:36:22;9.10;99.90
18611;DHT22;9435;52.122;5.502;2023-04-10T06:38:50;9.20;99.90
18611;DHT22;9435;52.122;5.502;2023-04-10T06:41:17;9.20;99.90
18611;DHT22;9435;52.122;5.502;2023-04-10T06:43:44;9.30;99.90
18611;DHT22;9435;52.122;5.502;2023-04-10T06:46:11;9.40;99.90
18611;DHT22;9435;52.122;5.502;2023-04-10T06:48:38;9.40;99.90
18611;DHT22;9435;52.122;5.502;2023-04-10T06:51:07;9.50;99.90
18611;DHT22;9435;52.122;5.502;2023-04-10T06:53:34;9.50;99.90
18611;DHT22;9435;52.122;5.502;2023-04-10T06:56:01;9.60;99.90
18611;DHT22;9435;52.122;5.502;2023-04-10T06:58:29;9.70;99.90
18611;DHT22;9435;52.122;5.502;2023-04-10T07:00:56;9.70;99.90
18611;DHT22;9435;52.122;5.502;2023-04-10T07:03:25;9.80;99.90
18611;DHT22;9435;52.122;5.502;2023-04-10T07:05:52;9.90;99.90
18611;DHT22;9435;52.122;5.502;2023-04-10T07:08:21;9.90;99.90
18611;DHT22;9435;52.122;5.502;2023-04-10T07:10:48;9.90;99.90
18611;DHT22;9435;52.122;5.502;2023-04-10T07:13:15;10.00;99.90
18611;DHT22;9435;52.122;5.502;2023-04-10T07:15:42;10.10;99.90
18611;DHT22;9435;52.122;5.502;2023-04-10T07:18:09;10.10;99.90
18611;DHT22;9435;52.122;5.502;2023-04-10T07:20:36;10.20;99.90
18611;DHT22;9435;52.122;5.502;2023-04-10T07:23:03;10.20;99.90
18611;DHT22;9435;52.122;5.502;2023-04-10T07:25:32;10.40;99.90
18611;DHT22;9435;52.122;5.502;2023-04-10T07:28:00;10.50;99.90
18611;DHT22;9435;52.122;5.502;2023-04-10T07:30:27;10.60;99.90
18611;DHT22;9435;52.122;5.502;2023-04-10T07:32:53;10.60;99.90
18611;DHT22;9435;52.122;5.502;2023-04-10T07:35:21;10.70;99.90
18611;DHT22;9435;52.122;5.502;2023-04-10T07:37:48;10.80;99.90
18611;DHT22;9435;52.122;5.502;2023-04-10T07:40:17;10.80;99.90
18611;DHT22;9435;52.122;5.502;2023-04-10T07:42:46;10.90;99.90
18611;DHT22;9435;52.122;5.502;2023-04-10T07:45:13;11.10;99.90
18611;DHT22;9435;52.122;5.502;2023-04-10T07:47:40;11.20;99.90
18611;DHT22;9435;52.122;5.502;2023-04-10T07:50:08;11.30;99.90
18611;DHT22;9435;52.122;5.502;2023-04-10T07:52:35;11.40;99.90
18611;DHT22;9435;52.122;5.502;2023-04-10T07:55:02;11.60;99.90
18611;DHT22;9435;52.122;5.502;2023-04-10T07:57:29;11.80;99.90
18611;DHT22;9435;52.122;5.502;2023-04-10T07:59:59;12.00;99.90
18611;DHT22;9435;52.122;5.502;2023-04-10T08:02:26;12.10;99.90
18611;DHT22;9435;52.122;5.502;2023-04-10T08:04:53;12.30;99.90
18611;DHT22;9435;52.122;5.502;2023-04-10T08:07:20;12.50;99.90
18611;DHT22;9435;52.122;5.502;2023-04-10T08:09:47;12.60;99.90
18611;DHT22;9435;52.122;5.502;2023-04-10T08:12:14;12.60;99.90
18611;DHT22;9435;52.122;5.502;2023-04-10T08:14:42;12.40;99.90
18611;DHT22;9435;52.122;5.502;2023-04-10T08:17:11;12.30;99.90
18611;DHT22;9435;52.122;5.502;2023-04-10T08:19:40;12.30;99.90
18611;DHT22;9435;52.122;5.502;2023-04-10T08:22:07;12.20;99.90
18611;DHT22;9435;52.122;5.502;2023-04-10T08:24:34;12.10;99.90
18611;DHT22;9435;52.122;5.502;2023-04-10T08:27:01;12.10;99.90
18611;DHT22;9435;52.122;5.502;2023-04-10T08:29:28;12.30;99.90
18611;DHT22;9435;52.122;5.502;2023-04-10T08:31:55;12.30;99.90
18611;DHT22;9435;52.122;5.502;2023-04-10T08:34:26;12.40;99.90
18611;DHT22;9435;52.122;5.502;2023-04-10T08:36:53;12.60;99.90
18611;DHT22;9435;52.122;5.502;2023-04-10T08:39:20;12.70;99.90
18611;DHT22;9435;52.122;5.502;2023-04-10T08:41:47;12.80;99.90
18611;DHT22;9435;52.122;5.502;2023-04-10T08:44:15;12.80;99.90
18611;DHT22;9435;52.122;5.502;2023-04-10T08:46:43;12.90;99.90
18611;DHT22;9435;52.122;5.502;2023-04-10T08:49:18;13.00;99.90
18611;DHT22;9435;52.122;5.502;2023-04-10T08:51:54;12.90;99.90
18611;DHT22;9435;52.122;5.502;2023-04-10T08:54:26;12.90;99.90
18611;DHT22;9435;52.122;5.502;2023-04-10T08:56:54;12.90;99.90
18611;DHT22;9435;52.122;5.502;2023-04-10T08:59:23;12.90;99.90
18611;DHT22;9435;52.122;5.502;2023-04-10T09:01:50;12.80;99.90
18611;DHT22;9435;52.122;5.502;2023-04-10T09:04:18;12.80;99.90
18611;DHT22;9435;52.122;5.502;2023-04-10T09:06:45;12.80;99.90
18611;DHT22;9435;52.122;5.502;2023-04-10T09:09:13;12.80;99.90
18611;DHT22;9435;52.122;5.502;2023-04-10T09:11:57;13.00;99.90
18611;DHT22;9435;52.122;5.502;2023-04-10T09:14:29;12.90;99.90
18611;DHT22;9435;52.122;5.502;2023-04-10T09:17:14;12.90;99.90
18611;DHT22;9435;52.122;5.502;2023-04-10T09:19:42;12.90;99.90
18611;DHT22;9435;52.122;5.502;2023-04-10T09:22:10;12.90;99.90
18611;DHT22;9435;52.122;5.502;2023-04-10T09:24:40;12.90;99.90
18611;DHT22;9435;52.122;5.502;2023-04-10T09:27:08;12.90;99.90
18611;DHT22;9435;52.122;5.502;2023-04-10T09:29:42;12.90;99.90
18611;DHT22;9435;52.122;5.502;2023-04-10T09:32:10;12.80;99.90
18611;DHT22;9435;52.122;5.502;2023-04-10T09:34:54;12.90;99.90
18611;DHT22;9435;52.122;5.502;2023-04-10T09:37:30;13.00;99.90
18611;DHT22;9435;52.122;5.502;2023-04-10T09:39:59;13.00;99.90
18611;DHT22;9435;52.122;5.502;2023-04-10T09:42:30;12.90;99.90
18611;DHT22;9435;52.122;5.502;2023-04-10T09:44:59;13.00;99.90
18611;DHT22;9435;52.122;5.502;2023-04-10T09:47:27;13.00;99.90
18611;DHT22;9435;52.122;5.502;2023-04-10T09:49:55;12.90;99.90
18611;DHT22;9435;52.122;5.502;2023-04-10T09:52:25;13.00;99.90
18611;DHT22;9435;52.122;5.502;2023-04-10T09:54:54;13.00;99.90
18611;DHT22;9435;52.122;5.502;2023-04-10T09:57:24;13.10;99.90
18611;DHT22;9435;52.122;5.502;2023-04-10T09:59:53;13.20;99.90
18611;DHT22;9435;52.122;5.502;2023-04-10T10:02:22;13.20;99.90
18611;DHT22;9435;52.122;5.502;2023-04-10T10:04:50;13.30;99.90
18611;DHT22;9435;52.122;5.502;2023-04-10T10:07:19;13.20;99.90
18611;DHT22;9435;52.122;5.502;2023-04-10T10:09:48;13.30;99.90
18611;DHT22;9435;52.122;5.502;2023-04-10T10:12:18;13.50;99.90
18611;DHT22;9435;52.122;5.502;2023-04-10T10:14:52;13.50;99.90
18611;DHT22;9435;52.122;5.502;2023-04-10T10:17:23;13.60;99.90
18611;DHT22;9435;52.122;5.502;2023-04-10T10:20:00;13.60;99.90
18611;DHT22;9435;52.122;5.502;2023-04-10T10:22:28;13.70;99.90
18611;DHT22;9435;52.122;5.502;2023-04-10T10:24:57;13.70;99.90
18611;DHT22;9435;52.122;5.502;2023-04-10T10:27:25;13.80;99.90
18611;DHT22;9435;52.122;5.502;2023-04-10T10:29:55;13.90;99.90
18611;DHT22;9435;52.122;5.502;2023-04-10T10:32:24;13.90;99.90
18611;DHT22;9435;52.122;5.502;2023-04-10T10:34:52;14.00;99.90
18611;DHT22;9435;52.122;5.502;2023-04-10T10:37:21;14.10;99.90
18611;DHT22;9435;52.122;5.502;2023-04-10T10:39:55;14.10;99.90
18611;DHT22;9435;52.122;5.502;2023-04-10T10:42:31;14.20;99.90
18611;DHT22;9435;52.122;5.502;2023-04-10T10:45:07;14.30;99.90
18611;DHT22;9435;52.122;5.502;2023-04-10T10:47:41;14.50;99.90
18611;DHT22;9435;52.122;5.502;2023-04-10T10:50:09;14.60;99.90
18611;DHT22;9435;52.122;5.502;2023-04-10T10:52:43;14.70;99.90
18611;DHT22;9435;52.122;5.502;2023-04-10T10:55:30;14.80;99.90
18611;DHT22;9435;52.122;5.502;2023-04-10T10:58:00;14.80;99.90
18611;DHT22;9435;52.122;5.502;2023-04-10T11:03:29;14.90;99.90
18611;DHT22;9435;52.122;5.502;2023-04-10T11:05:57;15.00;99.90
18611;DHT22;9435;52.122;5.502;2023-04-10T11:08:42;15.10;99.90
18611;DHT22;9435;52.122;5.502;2023-04-10T11:11:17;15.30;99.90
18611;DHT22;9435;52.122;5.502;2023-04-10T11:14:15;15.50;99.90
18611;DHT22;9435;52.122;5.502;2023-04-10T11:16:45;15.50;99.90
18611;DHT22;9435;52.122;5.502;2023-04-10T11:19:13;15.60;99.90
18611;DHT22;9435;52.122;5.502;2023-04-10T11:22:02;15.60;99.90
18611;DHT22;9435;52.122;5.502;2023-04-10T11:24:56;15.80;99.90
18611;DHT22;9435;52.122;5.502;2023-04-10T11:27:44;15.90;99.90
18611;DHT22;9435;52.122;5.502;2023-04-10T11:30:27;16.10;99.90
18611;DHT22;9435;52.122;5.502;2023-04-10T11:32:54;16.00;99.90
18611;DHT22;9435;52.122;5.502;2023-04-10T11:35:24;16.00;99.90
18611;DHT22;9435;52.122;5.502;2023-04-10T11:37:51;16.00;99.90
18611;DHT22;9435;52.122;5.502;2023-04-10T11:40:18;16.00;99.90
18611;DHT22;9435;52.122;5.502;2023-04-10T11:42:46;16.00;99.90
18611;DHT22;9435;52.122;5.502;2023-04-10T11:45:26;16.10;99.90
18611;DHT22;9435;52.122;5.502;2023-04-10T11:48:00;16.20;99.90
18611;DHT22;9435;52.122;5.502;2023-04-10T11:50:28;16.20;99.90
18611;DHT22;9435;52.122;5.502;2023-04-10T11:52:56;16.20;99.90
18611;DHT22;9435;52.122;5.502;2023-04-10T11:55:35;16.20;99.90
18611;DHT22;9435;52.122;5.502;2023-04-10T11:58:03;16.10;99.90
18611;DHT22;9435;52.122;5.502;2023-04-10T12:00:31;16.20;99.90
18611;DHT22;9435;52.122;5.502;2023-04-10T12:02:58;16.20;99.90
18611;DHT22;9435;52.122;5.502;2023-04-10T12:05:25;16.20;99.90
18611;DHT22;9435;52.122;5.502;2023-04-10T12:07:54;16.30;99.90
18611;DHT22;9435;52.122;5.502;2023-04-10T12:10:21;16.40;99.90
18611;DHT22;9435;52.122;5.502;2023-04-10T12:12:50;16.50;99.90
18611;DHT22;9435;52.122;5.502;2023-04-10T12:15:27;16.40;99.90
18611;DHT22;9435;52.122;5.502;2023-04-10T12:17:54;16.50;99.90
18611;DHT22;9435;52.122;5.502;2023-04-10T12:20:22;16.60;99.90
18611;DHT22;9435;52.122;5.502;2023-04-10T12:22:54;16.60;99.90
18611;DHT22;9435;52.122;5.502;2023-04-10T12:25:25;16.70;99.90
18611;DHT22;9435;52.122;5.502;2023-04-10T12:27:53;16.60;99.90
18611;DHT22;9435;52.122;5.502;2023-04-10T12:30:20;16.60;99.90
18611;DHT22;9435;52.122;5.502;2023-04-10T12:32:50;16.60;99.90
18611;DHT22;9435;52.122;5.502;2023-04-10T12:35:19;16.60;99.90
18611;DHT22;9435;52.122;5.502;2023-04-10T12:37:47;16.50;99.90
18611;DHT22;9435;52.122;5.502;2023-04-10T12:40:16;16.50;99.90
18611;DHT22;9435;52.122;5.502;2023-04-10T12:42:43;16.50;99.90
18611;DHT22;9435;52.122;5.502;2023-04-10T12:45:10;16.60;99.90
18611;DHT22;9435;52.122;5.502;2023-04-10T12:47:43;16.60;99.90
18611;DHT22;9435;52.122;5.502;2023-04-10T12:50:12;16.70;99.90
18611;DHT22;9435;52.122;5.502;2023-04-10T12:52:41;16.60;99.90
18611;DHT22;9435;52.122;5.502;2023-04-10T12:55:10;16.60;99.90
18611;DHT22;9435;52.122;5.502;2023-04-10T12:57:39;16.50;99.90
18611;DHT22;9435;52.122;5.502;2023-04-10T13:00:08;16.40;99.90
18611;DHT22;9435;52.122;5.502;2023-04-10T13:02:36;16.30;99.90
18611;DHT22;9435;52.122;5.502;2023-04-10T13:05:04;16.20;99.90
18611;DHT22;9435;52.122;5.502;2023-04-10T13:07:32;16.10;99.90
18611;DHT22;9435;52.122;5.502;2023-04-10T13:09:59;16.00;99.90
18611;DHT22;9435;52.122;5.502;2023-04-10T13:12:26;16.00;99.90
18611;DHT22;9435;52.122;5.502;2023-04-10T13:14:56;15.90;99.90
18611;DHT22;9435;52.122;5.502;2023-04-10T13:17:24;15.90;99.90
18611;DHT22;9435;52.122;5.502;2023-04-10T13:19:52;15.80;99.90
18611;DHT22;9435;52.122;5.502;2023-04-10T13:22:19;15.90;99.90
18611;DHT22;9435;52.122;5.502;2023-04-10T13:24:46;15.90;99.90
18611;DHT22;9435;52.122;5.502;2023-04-10T13:27:13;15.90;99.90
18611;DHT22;9435;52.122;5.502;2023-04-10T13:29:42;15.90;99.90
18611;DHT22;9435;52.122;5.502;2023-04-10T13:32:10;15.80;99.90
18611;DHT22;9435;52.122;5.502;2023-04-10T13:34:37;15.80;99.90
18611;DHT22;9435;52.122;5.502;2023-04-10T13:37:04;15.90;99.90
18611;DHT22;9435;52.122;5.502;2023-04-10T13:39:31;15.90;99.90
18611;DHT22;9435;52.122;5.502;2023-04-10T13:41:58;16.00;99.90
18611;DHT22;9435;52.122;5.502;2023-04-10T13:44:26;15.90;99.90
18611;DHT22;9435;52.122;5.502;2023-04-10T13:46:54;15.80;99.90
18611;DHT22;9435;52.122;5.502;2023-04-10T13:49:24;15.60;99.90
18611;DHT22;9435;52.122;5.502;2023-04-10T13:51:51;15.50;99.90
18611;DHT22;9435;52.122;5.502;2023-04-10T13:54:18;15.60;99.90
18611;DHT22;9435;52.122;5.502;2023-04-10T13:56:45;15.50;99.90
18611;DHT22;9435;52.122;5.502;2023-04-10T13:59:13;15.40;99.90
18611;DHT22;9435;52.122;5.502;2023-04-10T14:01:42;15.30;99.90
18611;DHT22;9435;52.122;5.502;2023-04-10T14:04:09;15.30;99.90
18611;DHT22;9435;52.122;5.502;2023-04-10T14:06:38;15.30;99.90
18611;DHT22;9435;52.122;5.502;2023-04-10T14:09:05;15.40;99.90
18611;DHT22;9435;52.122;5.502;2023-04-10T14:11:32;15.50;99.90
18611;DHT22;9435;52.122;5.502;2023-04-10T14:13:59;15.50;99.90
18611;DHT22;9435;52.122;5.502;2023-04-10T14:16:26;15.50;99.90
18611;DHT22;9435;52.122;5.502;2023-04-10T14:18:53;15.50;99.90
18611;DHT22;9435;52.122;5.502;2023-04-10T14:21:20;15.40;99.90
18611;DHT22;9435;52.122;5.502;2023-04-10T14:23:48;15.30;99.90
18611;DHT22;9435;52.122;5.502;2023-04-10T14:26:15;15.30;99.90
18611;DHT22;9435;52.122;5.502;2023-04-10T14:28:42;15.20;99.90
18611;DHT22;9435;52.122;5.502;2023-04-10T14:31:09;15.10;99.90
18611;DHT22;9435;52.122;5.502;2023-04-10T14:33:37;14.90;99.90
18611;DHT22;9435;52.122;5.502;2023-04-10T14:36:04;14.80;99.90
18611;DHT22;9435;52.122;5.502;2023-04-10T14:38:31;14.50;99.90
18611;DHT22;9435;52.122;5.502;2023-04-10T14:41:02;14.40;99.90
18611;DHT22;9435;52.122;5.502;2023-04-10T14:43:31;14.30;99.90
18611;DHT22;9435;52.122;5.502;2023-04-10T14:45:58;14.10;99.90
18611;DHT22;9435;52.122;5.502;2023-04-10T14:48:25;14.00;99.90
18611;DHT22;9435;52.122;5.502;2023-04-10T14:50:52;13.80;99.90
18611;DHT22;9435;52.122;5.502;2023-04-10T14:53:20;13.80;99.90
18611;DHT22;9435;52.122;5.502;2023-04-10T14:55:47;13.80;99.90
18611;DHT22;9435;52.122;5.502;2023-04-10T14:58:16;13.70;99.90
18611;DHT22;9435;52.122;5.502;2023-04-10T15:00:43;13.60;99.90
18611;DHT22;9435;52.122;5.502;2023-04-10T15:03:10;13.70;99.90
18611;DHT22;9435;52.122;5.502;2023-04-10T15:05:37;13.60;99.90
18611;DHT22;9435;52.122;5.502;2023-04-10T15:08:04;13.60;99.90
18611;DHT22;9435;52.122;5.502;2023-04-10T15:10:31;13.50;99.90
18611;DHT22;9435;52.122;5.502;2023-04-10T15:12:58;13.50;99.90
18611;DHT22;9435;52.122;5.502;2023-04-10T15:15:27;13.40;99.90
18611;DHT22;9435;52.122;5.502;2023-04-10T15:17:54;13.40;99.90
18611;DHT22;9435;52.122;5.502;2023-04-10T15:20:21;13.30;99.90
18611;DHT22;9435;52.122;5.502;2023-04-10T15:22:48;13.30;99.90
18611;DHT22;9435;52.122;5.502;2023-04-10T15:25:15;13.20;99.90
18611;DHT22;9435;52.122;5.502;2023-04-10T15:27:42;13.10;99.90
18611;DHT22;9435;52.122;5.502;2023-04-10T15:30:10;13.10;99.90
18611;DHT22;9435;52.122;5.502;2023-04-10T15:32:39;13.00;99.90
18611;DHT22;9435;52.122;5.502;2023-04-10T15:35:07;13.00;99.90
18611;DHT22;9435;52.122;5.502;2023-04-10T15:37:34;12.90;99.90
18611;DHT22;9435;52.122;5.502;2023-04-10T15:40:02;12.80;99.90
18611;DHT22;9435;52.122;5.502;2023-04-10T15:42:30;12.80;99.90
18611;DHT22;9435;52.122;5.502;2023-04-10T15:44:57;12.70;99.90
18611;DHT22;9435;52.122;5.502;2023-04-10T15:47:25;12.70;99.90
18611;DHT22;9435;52.122;5.502;2023-04-10T15:49:55;12.70;99.90
18611;DHT22;9435;52.122;5.502;2023-04-10T15:52:22;12.70;99.90
18611;DHT22;9435;52.122;5.502;2023-04-10T15:54:49;12.70;99.90
18611;DHT22;9435;52.122;5.502;2023-04-10T15:57:17;12.70;99.90
18611;DHT22;9435;52.122;5.502;2023-04-10T15:59:44;12.70;99.90
18611;DHT22;9435;52.122;5.502;2023-04-10T16:02:11;12.70;99.90
18611;DHT22;9435;52.122;5.502;2023-04-10T16:04:38;12.70;99.90